Jersey Mills, Pennsylvania
Current Conditions -  °F | °C
As of 2:35 AM on Wednesday 22 Oct 2014 (Local Time) from KN38 Reporting Station
Drizzle Drizzle  
Wind Chill: 41°   Ceiling: 400
Heat Index: 46°   Visibility: 3mi
Dew Point: 45°   Wind: 13mph
Humidity: 93%   Direction: 350°N
Pressure: 29.99"   Gusts: 21mph
Location:  41.44°N, 77.41°W
Report Text: KN38 220635Z AUTO 35011G18KT 3SM -DZ BKN004 OVC008 08/07 A2999 RMK AO2
Loading
Personal Weather Stations






























Interactive Weather Map
Tropical Storm Tracking
New forecast layout! Learn more

10-Day Weather Forecast

Advertisements
Track Severe Weather on mobile